sensor_id;sensor_type;location;lat;lon;timestamp;pressure;altitude;pressure_sealevel;temperature;humidity
63204;BME280;49297;43.210;27.914;2023-02-10T00:01:11;103524.41;;;-3.50;60.88
63204;BME280;49297;43.210;27.914;2023-02-10T00:03:38;103527.00;;;-3.50;61.35
63204;BME280;49297;43.210;27.914;2023-02-10T00:06:06;103536.44;;;-3.55;61.50
63204;BME280;49297;43.210;27.914;2023-02-10T00:08:33;103535.47;;;-3.62;61.81
63204;BME280;49297;43.210;27.914;2023-02-10T00:11:04;103537.13;;;-3.67;62.11
63204;BME280;49297;43.210;27.914;2023-02-10T00:13:30;103544.84;;;-3.70;61.77
63204;BME280;49297;43.210;27.914;2023-02-10T00:16:00;103543.88;;;-3.77;61.85
63204;BME280;49297;43.210;27.914;2023-02-10T00:18:27;103544.72;;;-3.79;61.31
63204;BME280;49297;43.210;27.914;2023-02-10T00:20:53;103538.53;;;-3.88;61.29
63204;BME280;49297;43.210;27.914;2023-02-10T00:23:19;103542.72;;;-3.97;61.25
63204;BME280;49297;43.210;27.914;2023-02-10T00:25:45;103534.84;;;-4.04;61.58
63204;BME280;49297;43.210;27.914;2023-02-10T00:28:11;103538.25;;;-4.05;61.65
63204;BME280;49297;43.210;27.914;2023-02-10T00:30:38;103520.09;;;-4.09;61.58
63204;BME280;49297;43.210;27.914;2023-02-10T00:33:04;103517.50;;;-4.09;62.04
63204;BME280;49297;43.210;27.914;2023-02-10T00:35:30;103523.50;;;-4.10;61.74
63204;BME280;49297;43.210;27.914;2023-02-10T00:37:56;103522.63;;;-4.11;61.63
63204;BME280;49297;43.210;27.914;2023-02-10T00:40:22;103507.88;;;-4.16;61.48
63204;BME280;49297;43.210;27.914;2023-02-10T00:42:48;103501.66;;;-4.28;61.80
63204;BME280;49297;43.210;27.914;2023-02-10T00:45:13;103505.00;;;-4.33;61.98
63204;BME280;49297;43.210;27.914;2023-02-10T00:47:39;103508.31;;;-4.41;62.16
63204;BME280;49297;43.210;27.914;2023-02-10T00:50:06;103503.97;;;-4.45;62.12
63204;BME280;49297;43.210;27.914;2023-02-10T00:52:32;103505.53;;;-4.53;61.99
63204;BME280;49297;43.210;27.914;2023-02-10T00:54:58;103494.34;;;-4.52;62.32
63204;BME280;49297;43.210;27.914;2023-02-10T00:57:24;103497.72;;;-4.56;62.52
63204;BME280;49297;43.210;27.914;2023-02-10T00:59:49;103505.44;;;-4.59;62.74
63204;BME280;49297;43.210;27.914;2023-02-10T01:02:15;103501.81;;;-4.67;62.53
63204;BME280;49297;43.210;27.914;2023-02-10T01:04:41;103500.97;;;-4.68;62.84
63204;BME280;49297;43.210;27.914;2023-02-10T01:07:07;103498.34;;;-4.69;62.94
63204;BME280;49297;43.210;27.914;2023-02-10T01:09:33;103503.50;;;-4.69;63.32
63204;BME280;49297;43.210;27.914;2023-02-10T01:11:59;103502.69;;;-4.68;63.45
63204;BME280;49297;43.210;27.914;2023-02-10T01:14:25;103487.94;;;-4.74;63.08
63204;BME280;49297;43.210;27.914;2023-02-10T01:16:51;103494.88;;;-4.70;63.19
63204;BME280;49297;43.210;27.914;2023-02-10T01:19:17;103485.31;;;-4.75;63.20
63204;BME280;49297;43.210;27.914;2023-02-10T01:21:43;103489.59;;;-4.76;63.30
63204;BME280;49297;43.210;27.914;2023-02-10T01:24:09;103487.00;;;-4.78;63.25
63204;BME280;49297;43.210;27.914;2023-02-10T01:26:35;103481.84;;;-4.78;63.57
63204;BME280;49297;43.210;27.914;2023-02-10T01:29:01;103483.50;;;-4.81;63.47
63204;BME280;49297;43.210;27.914;2023-02-10T01:31:27;103489.53;;;-4.81;63.24
63204;BME280;49297;43.210;27.914;2023-02-10T01:33:54;103492.84;;;-4.88;63.76
63204;BME280;49297;43.210;27.914;2023-02-10T01:36:23;103485.78;;;-4.97;63.73
63204;BME280;49297;43.210;27.914;2023-02-10T01:38:50;103489.22;;;-4.96;63.82
63204;BME280;49297;43.210;27.914;2023-02-10T01:41:20;103488.28;;;-5.00;64.25
63204;BME280;49297;43.210;27.914;2023-02-10T01:43:58;103490.84;;;-5.01;64.33
63204;BME280;49297;43.210;27.914;2023-02-10T01:46:24;103497.69;;;-5.03;64.35
63204;BME280;49297;43.210;27.914;2023-02-10T01:48:51;103493.38;;;-5.03;64.95
63204;BME280;49297;43.210;27.914;2023-02-10T01:51:19;103495.97;;;-5.04;65.14
63204;BME280;49297;43.210;27.914;2023-02-10T01:53:48;103484.75;;;-5.05;65.03
63204;BME280;49297;43.210;27.914;2023-02-10T01:56:15;103490.78;;;-5.06;65.46
63204;BME280;49297;43.210;27.914;2023-02-10T01:58:41;103502.66;;;-5.14;65.45
63204;BME280;49297;43.210;27.914;2023-02-10T02:01:09;103494.03;;;-5.14;65.43
63204;BME280;49297;43.210;27.914;2023-02-10T02:03:35;103491.41;;;-5.16;66.02
63204;BME280;49297;43.210;27.914;2023-02-10T02:06:01;103490.66;;;-5.10;65.42
63204;BME280;49297;43.210;27.914;2023-02-10T02:08:28;103492.50;;;-5.05;65.60
63204;BME280;49297;43.210;27.914;2023-02-10T02:11:26;103491.63;;;-5.05;65.06
63204;BME280;49297;43.210;27.914;2023-02-10T02:16:43;103490.03;;;-4.99;64.89
63204;BME280;49297;43.210;27.914;2023-02-10T02:25:26;103476.22;;;-4.99;64.29
63204;BME280;49297;43.210;27.914;2023-02-10T02:28:30;103470.28;;;-4.95;64.56
63204;BME280;49297;43.210;27.914;2023-02-10T02:34:02;103480.63;;;-4.95;64.35
63204;BME280;49297;43.210;27.914;2023-02-10T02:36:39;103485.75;;;-4.98;64.62
63204;BME280;49297;43.210;27.914;2023-02-10T02:39:08;103478.75;;;-5.04;64.29
63204;BME280;49297;43.210;27.914;2023-02-10T02:41:35;103470.81;;;-5.13;64.71
63204;BME280;49297;43.210;27.914;2023-02-10T02:44:02;103477.63;;;-5.17;64.72
63204;BME280;49297;43.210;27.914;2023-02-10T02:49:53;103459.59;;;-5.15;64.27
63204;BME280;49297;43.210;27.914;2023-02-10T02:52:44;103469.03;;;-5.16;64.38
63204;BME280;49297;43.210;27.914;2023-02-10T02:55:46;103466.50;;;-5.12;64.11
63204;BME280;49297;43.210;27.914;2023-02-10T02:58:20;103468.28;;;-5.11;64.23
63204;BME280;49297;43.210;27.914;2023-02-10T03:00:51;103467.38;;;-5.12;64.16
63204;BME280;49297;43.210;27.914;2023-02-10T03:03:18;103472.53;;;-5.12;63.79
63204;BME280;49297;43.210;27.914;2023-02-10T03:05:44;103462.16;;;-5.13;64.55
63204;BME280;49297;43.210;27.914;2023-02-10T03:08:10;103457.03;;;-5.12;63.56
63204;BME280;49297;43.210;27.914;2023-02-10T03:10:36;103458.63;;;-5.20;63.98
63204;BME280;49297;43.210;27.914;2023-02-10T03:13:02;103451.63;;;-5.24;63.98
63204;BME280;49297;43.210;27.914;2023-02-10T03:15:28;103444.75;;;-5.25;64.25
63204;BME280;49297;43.210;27.914;2023-02-10T03:17:56;103454.22;;;-5.24;64.39
63204;BME280;49297;43.210;27.914;2023-02-10T03:20:22;103456.81;;;-5.23;64.25
63204;BME280;49297;43.210;27.914;2023-02-10T03:22:48;103449.97;;;-5.21;64.54
63204;BME280;49297;43.210;27.914;2023-02-10T03:25:14;103453.41;;;-5.22;64.23
63204;BME280;49297;43.210;27.914;2023-02-10T03:27:39;103436.19;;;-5.21;64.07
63204;BME280;49297;43.210;27.914;2023-02-10T03:30:06;103438.81;;;-5.20;64.18
63204;BME280;49297;43.210;27.914;2023-02-10T03:32:32;103443.16;;;-5.17;64.28
63204;BME280;49297;43.210;27.914;2023-02-10T03:34:58;103435.47;;;-5.14;64.00
63204;BME280;49297;43.210;27.914;2023-02-10T03:37:23;103432.03;;;-5.14;63.62
63204;BME280;49297;43.210;27.914;2023-02-10T03:39:49;103432.09;;;-5.11;64.14
63204;BME280;49297;43.210;27.914;2023-02-10T03:42:15;103422.66;;;-5.09;63.74
63204;BME280;49297;43.210;27.914;2023-02-10T03:44:41;103421.78;;;-5.08;63.92
63204;BME280;49297;43.210;27.914;2023-02-10T03:47:07;103425.28;;;-5.06;63.86
63204;BME280;49297;43.210;27.914;2023-02-10T03:49:32;103420.97;;;-5.07;63.46
63204;BME280;49297;43.210;27.914;2023-02-10T03:51:58;103417.50;;;-5.06;63.54
63204;BME280;49297;43.210;27.914;2023-02-10T03:54:24;103419.22;;;-5.08;63.61
63204;BME280;49297;43.210;27.914;2023-02-10T03:56:50;103425.28;;;-5.06;62.92
63204;BME280;49297;43.210;27.914;2023-02-10T03:59:16;103417.44;;;-5.11;63.21
63204;BME280;49297;43.210;27.914;2023-02-10T04:01:41;103419.19;;;-5.10;63.06
63204;BME280;49297;43.210;27.914;2023-02-10T04:04:07;103415.84;;;-5.04;63.35
63204;BME280;49297;43.210;27.914;2023-02-10T04:06:33;103409.94;;;-4.99;63.75
63204;BME280;49297;43.210;27.914;2023-02-10T04:08:59;103412.44;;;-5.02;63.36
63204;BME280;49297;43.210;27.914;2023-02-10T04:11:25;103408.97;;;-5.04;63.38
63204;BME280;49297;43.210;27.914;2023-02-10T04:13:51;103411.56;;;-5.04;62.99
63204;BME280;49297;43.210;27.914;2023-02-10T04:16:17;103410.66;;;-5.06;63.17
63204;BME280;49297;43.210;27.914;2023-02-10T04:18:45;103408.97;;;-5.04;63.72
63204;BME280;49297;43.210;27.914;2023-02-10T04:21:12;103411.56;;;-5.04;63.32
63204;BME280;49297;43.210;27.914;2023-02-10T04:23:38;103403.72;;;-5.08;63.50
63204;BME280;49297;43.210;27.914;2023-02-10T04:26:04;103400.91;;;-5.19;63.31
63204;BME280;49297;43.210;27.914;2023-02-10T04:28:29;103396.56;;;-5.23;63.24
63204;BME280;49297;43.210;27.914;2023-02-10T04:30:58;103409.25;;;-5.34;63.63
63204;BME280;49297;43.210;27.914;2023-02-10T04:33:25;103395.41;;;-5.38;63.69
63204;BME280;49297;43.210;27.914;2023-02-10T04:35:52;103396.22;;;-5.42;63.99
63204;BME280;49297;43.210;27.914;2023-02-10T04:38:21;103404.78;;;-5.43;64.11
63204;BME280;49297;43.210;27.914;2023-02-10T04:40:48;103418.47;;;-5.47;64.49
63204;BME280;49297;43.210;27.914;2023-02-10T04:43:14;103407.22;;;-5.50;64.44
63204;BME280;49297;43.210;27.914;2023-02-10T04:45:40;103419.28;;;-5.49;65.31
63204;BME280;49297;43.210;27.914;2023-02-10T04:48:06;103421.03;;;-5.48;64.64
63204;BME280;49297;43.210;27.914;2023-02-10T04:50:32;103420.09;;;-5.52;64.71
63204;BME280;49297;43.210;27.914;2023-02-10T04:52:58;103415.72;;;-5.56;64.54
63204;BME280;49297;43.210;27.914;2023-02-10T04:55:24;103424.19;;;-5.62;65.22
63204;BME280;49297;43.210;27.914;2023-02-10T04:57:50;103425.88;;;-5.64;65.12
63204;BME280;49297;43.210;27.914;2023-02-10T05:00:16;103424.94;;;-5.67;65.75
63204;BME280;49297;43.210;27.914;2023-02-10T05:02:42;103422.28;;;-5.70;65.68
63204;BME280;49297;43.210;27.914;2023-02-10T05:05:10;103417.16;;;-5.69;65.92
63204;BME280;49297;43.210;27.914;2023-02-10T05:07:35;103416.31;;;-5.68;65.95
63204;BME280;49297;43.210;27.914;2023-02-10T05:10:01;103411.13;;;-5.69;66.11
63204;BME280;49297;43.210;27.914;2023-02-10T05:12:27;103409.34;;;-5.72;65.74
63204;BME280;49297;43.210;27.914;2023-02-10T05:14:53;103413.59;;;-5.76;65.59
63204;BME280;49297;43.210;27.914;2023-02-10T05:17:19;103406.66;;;-5.77;65.41
63204;BME280;49297;43.210;27.914;2023-02-10T05:19:45;103403.13;;;-5.82;65.72
63204;BME280;49297;43.210;27.914;2023-02-10T05:22:10;103407.50;;;-5.79;66.08
63204;BME280;49297;43.210;27.914;2023-02-10T05:24:36;103402.38;;;-5.76;65.82
63204;BME280;49297;43.210;27.914;2023-02-10T05:27:02;103402.41;;;-5.75;65.74
63204;BME280;49297;43.210;27.914;2023-02-10T05:29:28;103408.41;;;-5.76;66.05
63204;BME280;49297;43.210;27.914;2023-02-10T05:31:54;103414.38;;;-5.78;66.12
63204;BME280;49297;43.210;27.914;2023-02-10T05:34:19;103414.28;;;-5.83;66.40
63204;BME280;49297;43.210;27.914;2023-02-10T05:36:45;103422.06;;;-5.80;66.28
63204;BME280;49297;43.210;27.914;2023-02-10T05:39:11;103426.38;;;-5.80;66.44
63204;BME280;49297;43.210;27.914;2023-02-10T05:41:54;103426.53;;;-5.72;66.47
63204;BME280;49297;43.210;27.914;2023-02-10T05:44:21;103431.56;;;-5.79;66.58
63204;BME280;49297;43.210;27.914;2023-02-10T05:46:47;103442.72;;;-5.80;66.57
63204;BME280;49297;43.210;27.914;2023-02-10T05:49:14;103434.03;;;-5.83;66.88
63204;BME280;49297;43.210;27.914;2023-02-10T05:51:39;103436.50;;;-5.89;66.83
63204;BME280;49297;43.210;27.914;2023-02-10T05:54:06;103431.38;;;-5.88;66.53
63204;BME280;49297;43.210;27.914;2023-02-10T05:56:32;103444.13;;;-5.96;66.71
63204;BME280;49297;43.210;27.914;2023-02-10T05:58:58;103433.81;;;-5.96;66.51
63204;BME280;49297;43.210;27.914;2023-02-10T06:01:24;103434.56;;;-6.00;66.44
63204;BME280;49297;43.210;27.914;2023-02-10T06:03:50;103444.06;;;-5.99;66.57
63204;BME280;49297;43.210;27.914;2023-02-10T06:06:16;103444.91;;;-6.00;66.60
63204;BME280;49297;43.210;27.914;2023-02-10T06:08:42;103440.75;;;-5.91;66.56
63204;BME280;49297;43.210;27.914;2023-02-10T06:11:08;103444.38;;;-5.83;66.35
63204;BME280;49297;43.210;27.914;2023-02-10T06:13:34;103446.34;;;-5.71;66.08
63204;BME280;49297;43.210;27.914;2023-02-10T06:16:01;103439.63;;;-5.63;65.91
63204;BME280;49297;43.210;27.914;2023-02-10T06:18:28;103436.53;;;-5.48;65.69
63204;BME280;49297;43.210;27.914;2023-02-10T06:20:54;103434.19;;;-5.36;65.11
63204;BME280;49297;43.210;27.914;2023-02-10T06:23:20;103434.38;;;-5.27;65.07
63204;BME280;49297;43.210;27.914;2023-02-10T06:25:46;103438.88;;;-5.17;64.31
63204;BME280;49297;43.210;27.914;2023-02-10T06:28:12;103442.41;;;-5.13;63.92
63204;BME280;49297;43.210;27.914;2023-02-10T06:30:41;103437.38;;;-5.05;63.79
63204;BME280;49297;43.210;27.914;2023-02-10T06:33:07;103446.88;;;-5.04;63.77
63204;BME280;49297;43.210;27.914;2023-02-10T06:35:33;103440.09;;;-4.98;63.72
63204;BME280;49297;43.210;27.914;2023-02-10T06:37:59;103443.44;;;-5.03;64.07
63204;BME280;49297;43.210;27.914;2023-02-10T06:40:25;103439.16;;;-5.01;64.48
63204;BME280;49297;43.210;27.914;2023-02-10T06:42:51;103438.50;;;-4.91;64.18
63204;BME280;49297;43.210;27.914;2023-02-10T06:45:17;103429.94;;;-4.88;63.95
63204;BME280;49297;43.210;27.914;2023-02-10T06:47:43;103453.41;;;-4.76;63.80
63204;BME280;49297;43.210;27.914;2023-02-10T06:50:09;103449.22;;;-4.69;62.66
63204;BME280;49297;43.210;27.914;2023-02-10T06:52:35;103441.38;;;-4.75;62.12
63204;BME280;49297;43.210;27.914;2023-02-10T06:55:07;103431.91;;;-4.73;62.31
63204;BME280;49297;43.210;27.914;2023-02-10T06:57:34;103439.72;;;-4.69;62.42
63204;BME280;49297;43.210;27.914;2023-02-10T07:00:03;103445.13;;;-4.56;62.43
63204;BME280;49297;43.210;27.914;2023-02-10T07:02:29;103441.84;;;-4.46;61.80
63204;BME280;49297;43.210;27.914;2023-02-10T07:04:55;103437.63;;;-4.41;61.12
63204;BME280;49297;43.210;27.914;2023-02-10T07:07:21;103436.78;;;-4.40;60.94
63204;BME280;49297;43.210;27.914;2023-02-10T07:09:47;103442.88;;;-4.36;61.34
63204;BME280;49297;43.210;27.914;2023-02-10T07:12:13;103437.88;;;-4.26;60.97
63204;BME280;49297;43.210;27.914;2023-02-10T07:14:39;103438.97;;;-4.11;61.15
63204;BME280;49297;43.210;27.914;2023-02-10T07:17:05;103442.53;;;-4.02;60.58
63204;BME280;49297;43.210;27.914;2023-02-10T07:19:30;103444.34;;;-3.96;60.41
63204;BME280;49297;43.210;27.914;2023-02-10T07:22:00;103450.59;;;-3.82;60.13
63204;BME280;49297;43.210;27.914;2023-02-10T07:24:31;103433.53;;;-3.69;59.98
63204;BME280;49297;43.210;27.914;2023-02-10T07:26:57;103444.84;;;-3.59;60.04
63204;BME280;49297;43.210;27.914;2023-02-10T07:29:23;103444.94;;;-3.53;59.67
63204;BME280;49297;43.210;27.914;2023-02-10T07:31:49;103442.47;;;-3.43;59.24
63204;BME280;49297;43.210;27.914;2023-02-10T07:34:15;103438.25;;;-3.37;58.66
63204;BME280;49297;43.210;27.914;2023-02-10T07:36:43;103440.97;;;-3.26;58.52
63204;BME280;49297;43.210;27.914;2023-02-10T07:39:09;103441.88;;;-3.22;58.19
63204;BME280;49297;43.210;27.914;2023-02-10T07:41:36;103440.06;;;-3.27;58.22
63204;BME280;49297;43.210;27.914;2023-02-10T07:44:02;103443.59;;;-3.20;58.48
63204;BME280;49297;43.210;27.914;2023-02-10T07:46:28;103442.84;;;-3.11;58.82
63204;BME280;49297;43.210;27.914;2023-02-10T07:48:54;103438.63;;;-3.03;58.26
63204;BME280;49297;43.210;27.914;2023-02-10T07:51:20;103430.03;;;-2.97;58.24
63204;BME280;49297;43.210;27.914;2023-02-10T07:53:46;103427.50;;;-2.90;57.98
63204;BME280;49297;43.210;27.914;2023-02-10T07:56:12;103434.56;;;-2.78;57.67
63204;BME280;49297;43.210;27.914;2023-02-10T07:58:38;103439.84;;;-2.67;57.63
63204;BME280;49297;43.210;27.914;2023-02-10T08:01:08;103446.00;;;-2.53;57.06
63204;BME280;49297;43.210;27.914;2023-02-10T08:03:35;103441.75;;;-2.44;56.55
63204;BME280;49297;43.210;27.914;2023-02-10T08:06:01;103435.78;;;-2.33;55.80
63204;BME280;49297;43.210;27.914;2023-02-10T08:08:26;103444.53;;;-2.18;55.90
63204;BME280;49297;43.210;27.914;2023-02-10T08:10:52;103436.81;;;-2.14;55.30
63204;BME280;49297;43.210;27.914;2023-02-10T08:13:18;103431.59;;;-2.11;54.53
63204;BME280;49297;43.210;27.914;2023-02-10T08:15:44;103442.88;;;-2.12;54.71
63204;BME280;49297;43.210;27.914;2023-02-10T08:18:10;103441.19;;;-2.03;54.47
63204;BME280;49297;43.210;27.914;2023-02-10T08:20:36;103454.19;;;-2.00;54.36
63204;BME280;49297;43.210;27.914;2023-02-10T08:23:01;103450.81;;;-1.90;54.79
63204;BME280;49297;43.210;27.914;2023-02-10T08:25:27;103442.22;;;-1.78;54.57
63204;BME280;49297;43.210;27.914;2023-02-10T08:27:53;103448.34;;;-1.65;54.62
63204;BME280;49297;43.210;27.914;2023-02-10T08:30:19;103437.09;;;-1.55;54.28
63204;BME280;49297;43.210;27.914;2023-02-10T08:32:45;103435.44;;;-1.44;54.30
63204;BME280;49297;43.210;27.914;2023-02-10T08:35:11;103431.19;;;-1.28;54.28
63204;BME280;49297;43.210;27.914;2023-02-10T08:37:38;103427.75;;;-1.13;54.20
63204;BME280;49297;43.210;27.914;2023-02-10T08:40:05;103423.41;;;-1.02;53.62
63204;BME280;49297;43.210;27.914;2023-02-10T08:42:32;103427.78;;;-0.98;52.68
63204;BME280;49297;43.210;27.914;2023-02-10T08:44:58;103428.63;;;-0.99;50.86
63204;BME280;49297;43.210;27.914;2023-02-10T08:47:24;103429.53;;;-0.87;51.08
63204;BME280;49297;43.210;27.914;2023-02-10T08:49:50;103424.34;;;-0.73;49.83
63204;BME280;49297;43.210;27.914;2023-02-10T08:52:16;103432.16;;;-0.63;48.11
63204;BME280;49297;43.210;27.914;2023-02-10T08:54:42;103425.22;;;-0.64;47.59
63204;BME280;49297;43.210;27.914;2023-02-10T08:57:08;103433.03;;;-0.53;47.60
63204;BME280;49297;43.210;27.914;2023-02-10T08:59:35;103427.84;;;-0.41;46.50
63204;BME280;49297;43.210;27.914;2023-02-10T09:02:02;103426.06;;;-0.32;46.11
63204;BME280;49297;43.210;27.914;2023-02-10T09:04:28;103415.66;;;-0.22;46.10
63204;BME280;49297;43.210;27.914;2023-02-10T09:06:54;103413.03;;;-0.08;46.29
63204;BME280;49297;43.210;27.914;2023-02-10T09:09:21;103406.03;;;0.08;46.26
63204;BME280;49297;43.210;27.914;2023-02-10T09:11:52;103402.53;;;0.22;44.04
63204;BME280;49297;43.210;27.914;2023-02-10T09:14:19;103404.25;;;0.29;44.19
63204;BME280;49297;43.210;27.914;2023-02-10T09:16:45;103412.91;;;0.37;42.35
63204;BME280;49297;43.210;27.914;2023-02-10T09:19:11;103405.06;;;0.42;41.43
63204;BME280;49297;43.210;27.914;2023-02-10T09:21:37;103401.56;;;0.44;41.12
63204;BME280;49297;43.210;27.914;2023-02-10T09:24:02;103401.56;;;0.50;41.76
63204;BME280;49297;43.210;27.914;2023-02-10T09:26:28;103407.59;;;0.59;41.08
63204;BME280;49297;43.210;27.914;2023-02-10T09:28:54;103392.78;;;0.67;40.68
63204;BME280;49297;43.210;27.914;2023-02-10T09:31:20;103392.72;;;0.76;41.02
63204;BME280;49297;43.210;27.914;2023-02-10T09:33:47;103392.66;;;0.84;39.92
63204;BME280;49297;43.210;27.914;2023-02-10T09:36:16;103400.47;;;0.90;40.18
63204;BME280;49297;43.210;27.914;2023-02-10T09:38:42;103390.81;;;1.00;40.61
63204;BME280;49297;43.210;27.914;2023-02-10T09:44:20;103385.59;;;1.00;38.79
63204;BME280;49297;43.210;27.914;2023-02-10T09:52:32;103368.09;;;1.14;37.39
63204;BME280;49297;43.210;27.914;2023-02-10T09:55:12;103368.91;;;1.27;36.14
63204;BME280;49297;43.210;27.914;2023-02-10T09:57:49;103368.84;;;1.31;35.70
63204;BME280;49297;43.210;27.914;2023-02-10T10:00:32;103361.84;;;1.33;35.54
63204;BME280;49297;43.210;27.914;2023-02-10T10:03:00;103352.22;;;1.43;35.90
63204;BME280;49297;43.210;27.914;2023-02-10T10:05:45;103358.28;;;1.45;34.72
63204;BME280;49297;43.210;27.914;2023-02-10T10:11:24;103355.59;;;1.53;35.14
63204;BME280;49297;43.210;27.914;2023-02-10T10:13:51;103344.25;;;1.56;34.43
63204;BME280;49297;43.210;27.914;2023-02-10T10:19:06;103341.66;;;1.56;35.23
63204;BME280;49297;43.210;27.914;2023-02-10T10:27:05;103324.78;;;1.86;35.21
63204;BME280;49297;43.210;27.914;2023-02-10T10:32:16;103326.31;;;2.02;35.50
63204;BME280;49297;43.210;27.914;2023-02-10T10:34:50;103311.38;;;2.12;34.95
63204;BME280;49297;43.210;27.914;2023-02-10T10:37:20;103316.59;;;2.12;34.44
63204;BME280;49297;43.210;27.914;2023-02-10T10:39:51;103313.09;;;2.16;35.08
63204;BME280;49297;43.210;27.914;2023-02-10T10:42:49;103313.00;;;2.22;35.52
63204;BME280;49297;43.210;27.914;2023-02-10T10:45:22;103299.78;;;2.33;35.75
63204;BME280;49297;43.210;27.914;2023-02-10T10:47:56;103293.53;;;2.45;35.78
63204;BME280;49297;43.210;27.914;2023-02-10T10:50:24;103297.81;;;2.51;35.12
63204;BME280;49297;43.210;27.914;2023-02-10T10:52:53;103290.75;;;2.56;35.63
63204;BME280;49297;43.210;27.914;2023-02-10T10:56:06;103297.66;;;2.60;34.75
63204;BME280;49297;43.210;27.914;2023-02-10T11:01:36;103290.53;;;2.71;34.39
63204;BME280;49297;43.210;27.914;2023-02-10T11:04:12;103284.47;;;2.67;35.00
63204;BME280;49297;43.210;27.914;2023-02-10T11:06:43;103275.69;;;2.72;34.79
63204;BME280;49297;43.210;27.914;2023-02-10T11:09:33;103274.84;;;2.71;34.77
63204;BME280;49297;43.210;27.914;2023-02-10T11:12:05;103273.88;;;2.77;34.61
63204;BME280;49297;43.210;27.914;2023-02-10T11:14:40;103272.16;;;2.74;33.96
63204;BME280;49297;43.210;27.914;2023-02-10T11:20:00;103259.75;;;2.87;34.46
63204;BME280;49297;43.210;27.914;2023-02-10T11:22:27;103258.00;;;2.86;34.36
63204;BME280;49297;43.210;27.914;2023-02-10T11:25:15;103249.22;;;2.89;35.22
63204;BME280;49297;43.210;27.914;2023-02-10T11:27:52;103242.16;;;2.94;35.32
63204;BME280;49297;43.210;27.914;2023-02-10T11:32:49;103247.16;;;3.08;35.44
63204;BME280;49297;43.210;27.914;2023-02-10T11:35:16;103240.94;;;3.15;35.81
63204;BME280;49297;43.210;27.914;2023-02-10T11:37:43;103237.31;;;3.20;36.05
63204;BME280;49297;43.210;27.914;2023-02-10T11:42:51;103240.41;;;3.44;36.33
63204;BME280;49297;43.210;27.914;2023-02-10T11:45:26;103236.00;;;3.45;36.11
63204;BME280;49297;43.210;27.914;2023-02-10T11:48:01;103225.63;;;3.40;36.52
63204;BME280;49297;43.210;27.914;2023-02-10T11:50:34;103231.66;;;3.43;35.43
63204;BME280;49297;43.210;27.914;2023-02-10T11:53:00;103226.56;;;3.37;35.32
63204;BME280;49297;43.210;27.914;2023-02-10T11:55:52;103229.84;;;3.47;36.38
63204;BME280;49297;43.210;27.914;2023-02-10T12:01:19;103226.78;;;3.69;36.05
63204;BME280;49297;43.210;27.914;2023-02-10T12:07:01;103215.19;;;3.80;35.79
63204;BME280;49297;43.210;27.914;2023-02-10T12:12:42;103216.00;;;3.84;35.20
63204;BME280;49297;43.210;27.914;2023-02-10T12:15:28;103207.19;;;3.87;35.52
63204;BME280;49297;43.210;27.914;2023-02-10T12:18:27;103211.34;;;3.97;35.98
63204;BME280;49297;43.210;27.914;2023-02-10T12:23:57;103205.00;;;4.45;35.53
63204;BME280;49297;43.210;27.914;2023-02-10T12:26:29;103213.88;;;4.75;35.25
63204;BME280;49297;43.210;27.914;2023-02-10T12:35:05;103201.25;;;5.83;34.46
63204;BME280;49297;43.210;27.914;2023-02-10T12:41:06;103203.97;;;6.65;33.87
63204;BME280;49297;43.210;27.914;2023-02-10T12:46:30;103206.44;;;7.20;31.66
63204;BME280;49297;43.210;27.914;2023-02-10T12:49:06;103206.59;;;7.40;31.84
63204;BME280;49297;43.210;27.914;2023-02-10T12:54:17;103197.75;;;8.11;31.22
63204;BME280;49297;43.210;27.914;2023-02-10T12:56:53;103194.19;;;8.34;30.66
63204;BME280;49297;43.210;27.914;2023-02-10T12:59:29;103191.94;;;8.47;30.12
63204;BME280;49297;43.210;27.914;2023-02-10T13:02:11;103184.44;;;8.14;29.11
63204;BME280;49297;43.210;27.914;2023-02-10T13:04:43;103175.78;;;8.10;30.98
63204;BME280;49297;43.210;27.914;2023-02-10T13:07:28;103186.28;;;8.56;30.45
63204;BME280;49297;43.210;27.914;2023-02-10T13:12:48;103178.03;;;9.05;30.80
63204;BME280;49297;43.210;27.914;2023-02-10T13:15:43;103175.97;;;9.11;30.70
63204;BME280;49297;43.210;27.914;2023-02-10T13:21:22;103178.91;;;8.85;30.51
63204;BME280;49297;43.210;27.914;2023-02-10T13:24:11;103182.53;;;8.39;31.20
63204;BME280;49297;43.210;27.914;2023-02-10T13:29:40;103183.06;;;7.34;33.30
63204;BME280;49297;43.210;27.914;2023-02-10T13:34:54;103185.47;;;6.40;34.74
63204;BME280;49297;43.210;27.914;2023-02-10T13:42:51;103186.06;;;5.33;35.89
63204;BME280;49297;43.210;27.914;2023-02-10T13:45:30;103180.50;;;5.11;36.54
63204;BME280;49297;43.210;27.914;2023-02-10T13:48:05;103189.91;;;4.89;36.77
63204;BME280;49297;43.210;27.914;2023-02-10T13:58:54;103193.22;;;4.25;36.31
63204;BME280;49297;43.210;27.914;2023-02-10T14:01:37;103192.91;;;4.02;36.19
63204;BME280;49297;43.210;27.914;2023-02-10T14:06:45;103182.41;;;3.61;36.66
63204;BME280;49297;43.210;27.914;2023-02-10T14:09:34;103182.56;;;3.55;37.23
63204;BME280;49297;43.210;27.914;2023-02-10T14:12:05;103187.84;;;3.52;37.72
63204;BME280;49297;43.210;27.914;2023-02-10T14:14:37;103187.91;;;3.49;37.74
63204;BME280;49297;43.210;27.914;2023-02-10T14:19:43;103189.72;;;3.45;38.19
63204;BME280;49297;43.210;27.914;2023-02-10T14:22:30;103190.63;;;3.44;37.49
63204;BME280;49297;43.210;27.914;2023-02-10T14:25:03;103196.84;;;3.38;37.35
63204;BME280;49297;43.210;27.914;2023-02-10T14:27:30;103190.88;;;3.32;37.28
63204;BME280;49297;43.210;27.914;2023-02-10T14:30:21;103189.16;;;3.29;38.27
63204;BME280;49297;43.210;27.914;2023-02-10T14:32:47;103184.88;;;3.25;37.70
63204;BME280;49297;43.210;27.914;2023-02-10T14:35:22;103180.63;;;3.19;38.05
63204;BME280;49297;43.210;27.914;2023-02-10T14:37:53;103182.47;;;3.14;37.96
63204;BME280;49297;43.210;27.914;2023-02-10T14:40:22;103185.13;;;3.13;37.77